Time;durP1;ratioP1;P1;durP2;ratioP2;P2;SDS_P1;SDS_P2;PMS_P1;PMS_P2;Temp;Humidity;BMP_temperature;BMP_pressure;BME280_temperature;BME280_humidity;BME280_pressure;Samples;Min_cycle;Max_cycle;Signal;HPM_P1;HPM_P2
2022/11/28 00:02:41;;;;;;;;;;;;;;;24.60;45.80;94081.91;4946047;28;7265;-61
2022/11/28 00:05:18;;;;;;;;;;;;;;;24.62;45.67;94092.41;4961712;28;7023;-61
2022/11/28 00:08:18;;;;;;;;;;;;;;;24.62;46.34;94082.13;4957093;28;7312;-62
2022/11/28 00:11:02;;;;;;;;;;;;;;;24.59;45.98;94085.91;4919509;29;9297;-61
2022/11/28 00:13:47;;;;;;;;;;;;;;;24.62;46.41;94075.91;4932665;29;7060;-61
2022/11/28 00:16:25;;;;;;;;;;;;;;;24.60;46.25;94081.91;4927682;29;8983;-62
2022/11/28 00:18:54;;;;;;;;;;;;;;;24.61;46.08;94075.16;4916199;29;9347;-61
2022/11/28 00:21:21;;;;;;;;;;;;;;;24.60;46.37;94076.41;4919351;29;7437;-61
2022/11/28 00:24:06;;;;;;;;;;;;;;;24.61;45.67;94077.91;4984071;28;8797;-61
2022/11/28 00:26:54;;;;;;;;;;;;;;;24.61;45.66;94068.91;4980390;28;7537;-61
2022/11/28 00:29:30;;;;;;;;;;;;;;;24.61;46.29;94066.16;5010126;28;7329;-61
2022/11/28 00:32:07;;;;;;;;;;;;;;;24.62;46.17;94062.16;4995082;28;9059;-61
2022/11/28 00:34:44;;;;;;;;;;;;;;;24.61;45.93;94060.66;5011949;28;9464;-61
2022/11/28 00:37:11;;;;;;;;;;;;;;;24.61;45.57;94053.16;5003070;28;9482;-61
2022/11/28 00:39:40;;;;;;;;;;;;;;;24.59;46.54;94047.41;5010870;28;7362;-61
2022/11/28 00:42:15;;;;;;;;;;;;;;;24.62;45.73;94049.13;5012504;28;9421;-61
2022/11/28 00:44:41;;;;;;;;;;;;;;;24.61;45.63;94039.41;5011930;28;7290;-61
2022/11/28 00:47:18;;;;;;;;;;;;;;;24.62;45.49;94040.88;5016072;28;7272;-61
2022/11/28 00:49:44;;;;;;;;;;;;;;;24.61;45.62;94044.91;5013265;28;7057;-61
2022/11/28 00:52:10;;;;;;;;;;;;;;;24.61;46.18;94044.91;5034641;28;7252;-61
2022/11/28 00:54:36;;;;;;;;;;;;;;;24.61;46.15;94053.16;5021051;28;7099;-61
2022/11/28 00:57:02;;;;;;;;;;;;;;;24.60;45.68;94034.41;5028255;28;8199;-61
2022/11/28 00:59:30;;;;;;;;;;;;;;;24.60;45.96;94037.91;5017733;28;8970;-61
2022/11/28 01:02:27;;;;;;;;;;;;;;;24.61;46.40;94053.16;5020707;28;7040;-61
2022/11/28 01:05:40;;;;;;;;;;;;;;;24.60;46.43;94043.41;5024166;28;9137;-61
2022/11/28 01:08:09;;;;;;;;;;;;;;;24.61;46.10;94038.66;4979719;28;9064;-61
2022/11/28 01:10:44;;;;;;;;;;;;;;;24.60;46.09;94048.91;4981089;28;7498;-61
2022/11/28 01:13:10;;;;;;;;;;;;;;;24.59;46.42;94043.91;4971683;28;7068;-61
2022/11/28 01:15:57;;;;;;;;;;;;;;;24.57;45.92;94038.94;4980991;28;7401;-61
2022/11/28 01:18:23;;;;;;;;;;;;;;;24.60;46.35;94053.66;4972316;28;7017;-61
2022/11/28 01:20:54;;;;;;;;;;;;;;;24.59;45.61;94050.16;4969068;28;7007;-61
2022/11/28 01:23:29;;;;;;;;;;;;;;;24.59;46.07;94052.91;4960695;28;9124;-61
2022/11/28 01:26:07;;;;;;;;;;;;;;;24.59;46.23;94057.66;4974310;28;7321;-61
2022/11/28 01:29:02;;;;;;;;;;;;;;;24.59;46.01;94061.16;4987895;28;9092;-61
2022/11/28 01:31:47;;;;;;;;;;;;;;;24.60;46.21;94053.66;4933838;29;7037;-61
2022/11/28 01:34:13;;;;;;;;;;;;;;;24.59;45.80;94044.66;4925233;29;9054;-61
2022/11/28 01:37:09;;;;;;;;;;;;;;;24.60;46.61;94054.41;4910835;29;7210;-61
2022/11/28 01:40:13;;;;;;;;;;;;;;;24.59;46.08;94047.41;4880473;29;7036;-61
2022/11/28 01:42:48;;;;;;;;;;;;;;;24.59;46.11;94055.66;4799565;29;7377;-61
2022/11/28 01:45:32;;;;;;;;;;;;;;;24.59;46.23;94055.66;4834529;29;9081;-61
2022/11/28 01:48:16;;;;;;;;;;;;;;;24.60;45.63;94054.41;4861196;29;7293;-61
2022/11/28 01:50:45;;;;;;;;;;;;;;;24.59;46.35;94047.41;4861511;29;7005;-61
2022/11/28 01:53:12;;;;;;;;;;;;;;;24.60;45.83;94048.91;4876850;29;8996;-61
2022/11/28 01:55:48;;;;;;;;;;;;;;;24.61;46.01;94049.66;4876953;29;9004;-61
2022/11/28 01:58:21;;;;;;;;;;;;;;;24.61;45.65;94049.66;4856377;29;7289;-61
2022/11/28 02:00:53;;;;;;;;;;;;;;;24.61;45.40;94050.41;4861475;29;7531;-61
2022/11/28 02:03:42;;;;;;;;;;;;;;;24.62;45.89;94040.16;4862829;29;7357;-61
2022/11/28 02:06:25;;;;;;;;;;;;;;;24.61;45.52;94033.91;4858646;29;9684;-61
2022/11/28 02:08:54;;;;;;;;;;;;;;;24.62;45.60;94031.91;4917903;29;9418;-61
2022/11/28 02:15:21;;;;;;;;;;;;;;;24.63;45.45;94036.88;4930853;28;7407;-61
2022/11/28 02:18:25;;;;;;;;;;;;;;;24.64;45.98;94034.88;4982172;28;7189;-61
2022/11/28 02:21:28;;;;;;;;;;;;;;;24.63;46.14;94025.88;4908462;29;7836;-62
2022/11/28 02:24:23;;;;;;;;;;;;;;;24.62;45.20;94032.63;4898284;29;9015;-61
2022/11/28 02:30:11;;;;;;;;;;;;;;;24.61;46.21;94028.41;4910231;29;9069;-61
2022/11/28 02:32:56;;;;;;;;;;;;;;;24.61;45.41;94022.91;4905357;29;7119;-61
2022/11/28 02:36:01;;;;;;;;;;;;;;;24.62;46.26;94018.16;4907079;29;7591;-61
2022/11/28 02:39:15;;;;;;;;;;;;;;;24.62;45.38;94015.41;4913370;29;7268;-61
2022/11/28 02:41:56;;;;;;;;;;;;;;;24.60;45.48;94010.41;4904508;29;9032;-61
2022/11/28 02:44:53;;;;;;;;;;;;;;;24.61;45.87;94011.91;4907571;29;7288;-61
2022/11/28 02:47:37;;;;;;;;;;;;;;;24.61;45.92;94017.41;4849185;29;8802;-61
2022/11/28 02:50:31;;;;;;;;;;;;;;;24.61;45.95;94011.91;4857894;29;7103;-61
2022/11/28 02:53:07;;;;;;;;;;;;;;;24.60;45.85;94004.91;4824184;29;7080;-61
2022/11/28 02:55:38;;;;;;;;;;;;;;;24.59;45.60;93997.94;4849706;29;8996;-61
2022/11/28 02:58:13;;;;;;;;;;;;;;;24.62;45.99;93996.16;4925065;29;8966;-61
2022/11/28 03:00:43;;;;;;;;;;;;;;;24.61;45.67;94000.91;4932077;29;8683;-61
2022/11/28 03:03:53;;;;;;;;;;;;;;;24.61;46.18;93984.41;4908962;29;7338;-62
2022/11/28 03:06:39;;;;;;;;;;;;;;;24.60;45.60;93974.66;4923743;29;7034;-61
2022/11/28 03:09:50;;;;;;;;;;;;;;;24.59;45.39;93986.94;4926360;29;7033;-61
2022/11/28 03:12:48;;;;;;;;;;;;;;;24.60;45.15;93987.66;4923492;29;7299;-61
2022/11/28 03:15:29;;;;;;;;;;;;;;;24.59;45.59;93980.69;4916920;29;9315;-62
2022/11/28 03:18:08;;;;;;;;;;;;;;;24.57;45.92;93977.69;4929464;29;7171;-62
2022/11/28 03:20:59;;;;;;;;;;;;;;;24.60;45.94;93979.41;4921682;29;7401;-61
2022/11/28 03:24:08;;;;;;;;;;;;;;;24.61;45.39;93967.16;4957564;28;9089;-61
2022/11/28 03:26:59;;;;;;;;;;;;;;;24.61;45.61;93978.16;4983998;28;9092;-61
2022/11/28 03:29:56;;;;;;;;;;;;;;;24.60;45.33;93973.91;5004149;28;7270;-61
2022/11/28 03:32:39;;;;;;;;;;;;;;;24.61;45.93;93969.91;4990301;28;9090;-61
2022/11/28 03:35:22;;;;;;;;;;;;;;;24.60;45.24;93977.41;4995263;28;9145;-61
2022/11/28 03:38:06;;;;;;;;;;;;;;;24.60;45.60;93966.41;5003844;28;8374;-61
2022/11/28 03:40:43;;;;;;;;;;;;;;;24.60;45.39;93958.16;4987203;28;7269;-61
2022/11/28 03:43:26;;;;;;;;;;;;;;;24.60;45.35;93960.91;5004129;28;9079;-61
2022/11/28 03:46:07;;;;;;;;;;;;;;;24.60;45.64;93960.91;4996041;28;7344;-61
2022/11/28 03:48:46;;;;;;;;;;;;;;;24.60;45.50;93963.66;5001758;28;7257;-61
2022/11/28 03:51:20;;;;;;;;;;;;;;;24.60;45.76;93966.41;4989853;28;7037;-61
2022/11/28 03:53:52;;;;;;;;;;;;;;;24.63;45.36;93961.88;4993338;28;7278;-61
2022/11/28 03:56:37;;;;;;;;;;;;;;;24.61;45.98;93964.41;5010184;28;7404;-61
2022/11/28 03:59:12;;;;;;;;;;;;;;;24.62;45.57;93963.16;5007354;28;8238;-61
2022/11/28 04:02:17;;;;;;;;;;;;;;;24.62;45.42;93965.91;4994820;28;8697;-61
2022/11/28 04:05:14;;;;;;;;;;;;;;;24.63;45.77;93970.13;5028021;28;7047;-61
2022/11/28 04:11:00;;;;;;;;;;;;;;;24.61;45.46;93967.91;5029558;28;8786;-61
2022/11/28 04:13:36;;;;;;;;;;;;;;;24.61;45.51;93964.41;5025213;28;7261;-61
2022/11/28 04:16:20;;;;;;;;;;;;;;;24.61;45.27;93967.16;5015061;28;9373;-61
2022/11/28 04:19:09;;;;;;;;;;;;;;;24.62;45.88;93977.63;5025079;28;9246;-61
2022/11/28 04:22:09;;;;;;;;;;;;;;;24.62;45.60;93974.88;5022457;28;9116;-61
2022/11/28 04:25:08;;;;;;;;;;;;;;;24.61;45.66;93970.66;5019202;28;7287;-61
2022/11/28 04:27:51;;;;;;;;;;;;;;;24.60;45.49;93960.91;5008094;28;7213;-61
2022/11/28 04:30:50;;;;;;;;;;;;;;;24.59;45.83;93962.19;5030241;28;7291;-61
2022/11/28 04:33:23;;;;;;;;;;;;;;;24.59;45.53;93958.69;4934149;29;7050;-61
2022/11/28 04:35:55;;;;;;;;;;;;;;;24.58;45.68;93957.19;4915558;29;7368;-61
2022/11/28 04:38:41;;;;;;;;;;;;;;;24.58;45.83;93957.94;4933448;29;7037;-61
2022/11/28 04:41:15;;;;;;;;;;;;;;;24.57;45.36;93950.97;4917818;29;7145;-62
2022/11/28 04:43:58;;;;;;;;;;;;;;;24.59;45.95;93953.19;4934777;29;7321;-61
2022/11/28 04:46:54;;;;;;;;;;;;;;;24.60;45.16;93955.41;4935190;29;9056;-61
2022/11/28 04:49:50;;;;;;;;;;;;;;;24.59;45.06;93942.94;4888221;29;8987;-61
2022/11/28 04:52:29;;;;;;;;;;;;;;;24.58;45.66;93949.69;4893353;29;8316;-62
2022/11/28 04:55:13;;;;;;;;;;;;;;;24.60;45.85;93946.41;4881835;29;8319;-61
2022/11/28 04:57:47;;;;;;;;;;;;;;;24.58;45.86;93943.44;4891192;29;8415;-61
2022/11/28 05:00:19;;;;;;;;;;;;;;;24.59;45.70;93936.69;4893457;29;9375;-62
2022/11/28 05:03:03;;;;;;;;;;;;;;;24.58;45.79;93937.94;4874425;29;7297;-61
2022/11/28 05:05:52;;;;;;;;;;;;;;;24.58;45.92;93935.94;4881260;29;8960;-61
2022/11/28 05:08:20;;;;;;;;;;;;;;;24.60;45.27;93938.91;4896592;29;7163;-61
2022/11/28 05:10:56;;;;;;;;;;;;;;;24.58;45.14;93935.94;4892907;29;7980;-62
2022/11/28 05:13:23;;;;;;;;;;;;;;;24.58;45.93;93927.69;4877583;29;7187;-61
2022/11/28 05:16:14;;;;;;;;;;;;;;;24.59;45.88;93934.69;4894141;29;7133;-61
2022/11/28 05:19:17;;;;;;;;;;;;;;;24.58;46.03;93933.19;4892886;29;9642;-61
2022/11/28 05:21:43;;;;;;;;;;;;;;;24.58;45.75;93941.44;4906314;29;7050;-61
2022/11/28 05:24:12;;;;;;;;;;;;;;;24.57;45.27;93939.22;4897882;29;7371;-62
2022/11/28 05:26:55;;;;;;;;;;;;;;;24.61;45.26;93950.66;4911126;29;7077;-61
2022/11/28 05:29:32;;;;;;;;;;;;;;;24.62;44.90;93943.91;4987120;28;7614;-61
2022/11/28 05:32:08;;;;;;;;;;;;;;;24.62;43.68;93957.66;4978657;28;7405;-61
2022/11/28 05:34:36;;;;;;;;;;;;;;;24.65;43.91;93962.88;5002622;28;7255;-61
2022/11/28 05:37:11;;;;;;;;;;;;;;;24.64;46.85;93950.38;4986986;28;8682;-61
2022/11/28 05:39:57;;;;;;;;;;;;;;;24.71;47.55;93951.81;4983833;28;7285;-61
2022/11/28 05:42:27;;;;;;;;;;;;;;;24.70;44.26;93948.31;4992170;28;7446;-61
2022/11/28 05:45:03;;;;;;;;;;;;;;;24.70;44.69;93947.56;4999671;28;7208;-61
2022/11/28 05:48:13;;;;;;;;;;;;;;;24.69;44.42;93946.81;4992517;28;7133;-62
2022/11/28 05:50:41;;;;;;;;;;;;;;;24.69;45.11;93946.81;4944557;28;9433;-62
2022/11/28 05:53:08;;;;;;;;;;;;;;;24.67;45.88;93943.84;4944733;28;9064;-61
2022/11/28 05:55:37;;;;;;;;;;;;;;;24.71;45.28;93938.81;4935668;28;9047;-61
2022/11/28 05:58:06;;;;;;;;;;;;;;;24.70;45.07;93936.56;4936241;28;7101;-62
2022/11/28 06:00:33;;;;;;;;;;;;;;;24.70;45.18;93931.81;4936561;28;7085;-61
2022/11/28 06:03:02;;;;;;;;;;;;;;;24.72;44.73;93931.31;4946474;28;7141;-61
2022/11/28 06:05:33;;;;;;;;;;;;;;;24.73;45.30;93937.56;4951415;28;7485;-62
2022/11/28 06:08:11;;;;;;;;;;;;;;;24.75;46.04;93935.06;4948704;28;7163;-61
2022/11/28 06:11:01;;;;;;;;;;;;;;;24.75;45.11;93944.03;4950449;28;9418;-61
2022/11/28 06:13:26;;;;;;;;;;;;;;;24.78;44.82;93939.50;4928599;28;9297;-61
2022/11/28 06:15:55;;;;;;;;;;;;;;;24.81;45.22;93933.00;4930221;28;7280;-61
2022/11/28 06:18:24;;;;;;;;;;;;;;;24.82;45.29;93926.97;4939639;28;7350;-61
2022/11/28 06:21:01;;;;;;;;;;;;;;;24.80;45.04;93920.47;4933365;28;9023;-61
2022/11/28 06:23:30;;;;;;;;;;;;;;;24.79;44.52;93916.25;4923279;28;9731;-61
2022/11/28 06:26:16;;;;;;;;;;;;;;;24.81;44.55;93927.50;4929727;28;7195;-61
2022/11/28 06:28:54;;;;;;;;;;;;;;;24.83;44.06;93931.22;5014788;28;7284;-61
2022/11/28 06:31:52;;;;;;;;;;;;;;;24.81;44.81;93931.00;5014810;28;7044;-61
2022/11/28 06:34:27;;;;;;;;;;;;;;;24.78;44.32;93928.50;5007556;28;7216;-61
2022/11/28 06:36:52;;;;;;;;;;;;;;;24.73;44.27;93928.03;5003057;28;7228;-61
2022/11/28 06:39:27;;;;;;;;;;;;;;;24.73;44.86;93936.28;4986243;28;7407;-61
2022/11/28 06:42:03;;;;;;;;;;;;;;;24.69;44.17;93924.06;4996122;28;7081;-60
2022/11/28 06:45:17;;;;;;;;;;;;;;;24.71;44.19;93927.81;4991610;28;7124;-61
2022/11/28 06:47:55;;;;;;;;;;;;;;;24.78;44.62;93928.50;4999732;28;9113;-61
2022/11/28 06:50:27;;;;;;;;;;;;;;;24.76;44.36;93925.53;5004176;28;7292;-61
2022/11/28 06:52:56;;;;;;;;;;;;;;;24.79;44.88;93930.75;4988994;28;9018;-61
2022/11/28 06:55:24;;;;;;;;;;;;;;;24.82;44.92;93926.22;5000890;28;9039;-61
2022/11/28 06:57:50;;;;;;;;;;;;;;;24.82;45.16;93928.97;4986708;28;8618;-61
2022/11/28 07:00:16;;;;;;;;;;;;;;;24.79;44.13;93932.75;5005452;28;9034;-61
2022/11/28 07:02:42;;;;;;;;;;;;;;;24.79;44.86;93922.50;5005654;28;8746;-62
2022/11/28 07:05:08;;;;;;;;;;;;;;;24.84;44.25;93934.72;4985093;28;7079;-61
2022/11/28 07:08:03;;;;;;;;;;;;;;;24.86;44.31;93938.41;4976629;28;9075;-61
2022/11/28 07:10:32;;;;;;;;;;;;;;;24.82;44.49;93932.47;4929732;29;8855;-62
2022/11/28 07:13:08;;;;;;;;;;;;;;;24.81;44.47;93935.75;4932239;29;7329;-61
2022/11/28 07:15:34;;;;;;;;;;;;;;;24.81;44.42;93941.25;4916045;29;7354;-61
2022/11/28 07:18:03;;;;;;;;;;;;;;;24.81;44.31;93942.00;4927933;29;8206;-61
2022/11/28 07:20:30;;;;;;;;;;;;;;;24.81;44.68;93944.00;4925216;29;9003;-61
2022/11/28 07:23:11;;;;;;;;;;;;;;;24.79;44.38;93941.78;4916194;29;7624;-62
2022/11/28 07:25:40;;;;;;;;;;;;;;;24.79;44.30;93943.75;4927542;29;10177;-61
2022/11/28 07:28:08;;;;;;;;;;;;;;;24.79;44.70;93946.53;4928356;29;8963;-61
2022/11/28 07:30:43;;;;;;;;;;;;;;;24.79;44.46;93949.25;4931924;29;7018;-61
2022/11/28 07:33:10;;;;;;;;;;;;;;;24.77;44.70;93952.53;4931467;29;7514;-61
2022/11/28 07:35:45;;;;;;;;;;;;;;;24.75;44.55;93952.28;4916114;29;7120;-61
2022/11/28 07:38:12;;;;;;;;;;;;;;;24.75;44.52;93954.31;4931276;29;7373;-61
2022/11/28 07:40:38;;;;;;;;;;;;;;;24.73;44.68;93954.78;4922306;29;9424;-61
2022/11/28 07:43:18;;;;;;;;;;;;;;;24.71;44.79;93958.06;4928114;29;8632;-61
2022/11/28 07:46:16;;;;;;;;;;;;;;;24.73;44.95;93951.31;4932581;28;7242;-61
2022/11/28 07:49:03;;;;;;;;;;;;;;;24.70;44.54;93955.81;5029226;28;7030;-61
2022/11/28 07:51:36;;;;;;;;;;;;;;;24.69;45.01;93952.31;5015535;28;9841;-61
2022/11/28 07:54:05;;;;;;;;;;;;;;;24.69;45.49;93949.56;5017559;28;7365;-61
2022/11/28 07:56:37;;;;;;;;;;;;;;;24.68;44.65;93953.56;5011719;28;7479;-61
2022/11/28 07:59:04;;;;;;;;;;;;;;;24.66;45.32;93947.84;5032190;28;7320;-61
2022/11/28 08:01:39;;;;;;;;;;;;;;;24.69;44.92;93946.81;5022020;28;7262;-61
2022/11/28 08:04:12;;;;;;;;;;;;;;;24.69;44.78;93952.31;5022176;28;7417;-61
2022/11/28 08:07:13;;;;;;;;;;;;;;;24.71;44.66;93946.31;5021218;28;6891;-61
2022/11/28 08:09:56;;;;;;;;;;;;;;;24.73;44.56;93943.78;5012635;28;10133;-61
2022/11/28 08:12:22;;;;;;;;;;;;;;;24.73;44.97;93946.53;4985443;28;7223;-61
2022/11/28 08:14:50;;;;;;;;;;;;;;;24.73;44.57;93941.78;4984523;28;7282;-61
2022/11/28 08:17:23;;;;;;;;;;;;;;;24.75;45.00;93944.03;5013532;28;7547;-61
2022/11/28 08:19:51;;;;;;;;;;;;;;;24.71;44.63;93933.31;4992736;28;9442;-61
2022/11/28 08:22:39;;;;;;;;;;;;;;;24.71;44.83;93938.81;4993078;28;7371;-61
2022/11/28 08:25:13;;;;;;;;;;;;;;;24.71;45.01;93935.31;4995570;28;7280;-61
2022/11/28 08:27:39;;;;;;;;;;;;;;;24.71;45.33;93936.06;5013558;28;7190;-61
2022/11/28 08:30:09;;;;;;;;;;;;;;;24.71;45.41;93941.56;4992377;28;7021;-61
2022/11/28 08:32:43;;;;;;;;;;;;;;;24.73;45.06;93940.31;4994177;28;8688;-61
2022/11/28 08:35:11;;;;;;;;;;;;;;;24.74;45.31;93942.53;5012765;28;7224;-61
2022/11/28 08:37:37;;;;;;;;;;;;;;;24.73;44.90;93938.28;5002141;28;7252;-61
2022/11/28 08:40:05;;;;;;;;;;;;;;;24.74;44.87;93937.03;4975149;28;7268;-61
2022/11/28 08:42:34;;;;;;;;;;;;;;;24.73;44.83;93947.28;5002733;28;8837;-61
2022/11/28 08:45:15;;;;;;;;;;;;;;;24.73;44.66;93939.03;5005995;28;9479;-61
2022/11/28 08:47:45;;;;;;;;;;;;;;;24.71;44.75;93925.06;5022797;28;7179;-61
2022/11/28 08:50:11;;;;;;;;;;;;;;;24.69;44.91;93926.81;5022741;28;9077;-61
2022/11/28 08:52:37;;;;;;;;;;;;;;;24.73;45.41;93934.81;5028691;28;7213;-61
2022/11/28 08:55:03;;;;;;;;;;;;;;;24.73;44.98;93926.56;5029120;28;7456;-61
2022/11/28 08:57:29;;;;;;;;;;;;;;;24.72;45.33;93928.56;5016822;28;7009;-61
2022/11/28 08:59:57;;;;;;;;;;;;;;;24.71;45.34;93927.81;5021958;28;7076;-61
2022/11/28 09:02:30;;;;;;;;;;;;;;;24.70;45.69;93934.56;5025741;28;9007;-61
2022/11/28 09:05:02;;;;;;;;;;;;;;;24.71;44.86;93933.31;5031144;28;7095;-61
2022/11/28 09:07:29;;;;;;;;;;;;;;;24.70;45.71;93929.06;5040708;28;6970;-61
2022/11/28 09:09:56;;;;;;;;;;;;;;;24.69;45.24;93927.56;5016145;28;7016;-61
2022/11/28 09:12:37;;;;;;;;;;;;;;;24.69;44.80;93933.06;5025707;28;9206;-61
2022/11/28 09:15:08;;;;;;;;;;;;;;;24.69;45.10;93927.56;5029585;28;9083;-61
2022/11/28 09:17:51;;;;;;;;;;;;;;;24.68;44.93;93928.81;5038216;28;9430;-62
2022/11/28 09:20:24;;;;;;;;;;;;;;;24.67;45.19;93921.84;5020769;28;7188;-61
2022/11/28 09:23:04;;;;;;;;;;;;;;;24.67;45.45;93927.34;5024717;28;7057;-61
2022/11/28 09:25:57;;;;;;;;;;;;;;;24.69;45.06;93921.31;5021873;28;7539;-61
2022/11/28 09:28:27;;;;;;;;;;;;;;;24.66;45.39;93927.88;5017545;28;7561;-61
2022/11/28 09:31:20;;;;;;;;;;;;;;;24.69;45.07;93924.81;5016472;28;7040;-61
2022/11/28 09:33:51;;;;;;;;;;;;;;;24.66;45.46;93925.84;5028353;28;9273;-61
2022/11/28 09:36:24;;;;;;;;;;;;;;;24.65;45.48;93918.88;5031174;28;7292;-61
2022/11/28 09:38:50;;;;;;;;;;;;;;;24.68;45.77;93928.81;5022593;28;7239;-61
2022/11/28 09:42:00;;;;;;;;;;;;;;;24.68;45.05;93917.09;5030762;28;7060;-61
2022/11/28 09:45:23;;;;;;;;;;;;;;;24.69;44.79;93919.31;5021211;28;7073;-61
2022/11/28 09:48:21;;;;;;;;;;;;;;;24.69;45.26;93919.31;5029112;28;10082;-61
2022/11/28 09:50:59;;;;;;;;;;;;;;;24.68;45.19;93923.31;5029049;28;9357;-61
2022/11/28 09:54:05;;;;;;;;;;;;;;;24.69;45.27;93922.06;5027614;28;10191;-61
2022/11/28 09:56:31;;;;;;;;;;;;;;;24.68;45.78;93909.56;4948232;28;7180;-61
2022/11/28 09:59:02;;;;;;;;;;;;;;;24.68;45.47;93909.56;4959552;28;9106;-61
2022/11/28 10:02:15;;;;;;;;;;;;;;;24.69;44.93;93908.31;4950550;28;8911;-61
2022/11/28 10:04:59;;;;;;;;;;;;;;;24.70;45.66;93898.81;4924945;29;6970;-61
2022/11/28 10:07:46;;;;;;;;;;;;;;;24.71;45.02;93900.31;4910052;29;7129;-61
2022/11/28 10:11:00;;;;;;;;;;;;;;;24.70;45.68;93898.81;4906323;29;7118;-61
2022/11/28 10:13:36;;;;;;;;;;;;;;;24.70;45.46;93898.06;4873593;29;7033;-61
2022/11/28 10:16:04;;;;;;;;;;;;;;;24.70;44.99;93892.56;4866119;29;7693;-61
2022/11/28 10:19:14;;;;;;;;;;;;;;;24.71;45.22;93892.06;5045977;28;6665;-59
2022/11/28 10:21:50;;;;;;;;;;;;;;;24.71;45.74;93894.81;5020763;28;8977;-59
2022/11/28 10:24:22;;;;;;;;;;;;;;;24.72;45.51;93890.06;5036417;28;7053;-59
2022/11/28 10:26:57;;;;;;;;;;;;;;;24.73;45.44;93883.28;5021792;28;9480;-60
2022/11/28 10:29:23;;;;;;;;;;;;;;;24.76;45.16;93884.28;5025997;28;9785;-61
2022/11/28 10:31:57;;;;;;;;;;;;;;;24.73;45.33;93886.78;5023777;28;7198;-62
2022/11/28 10:34:45;;;;;;;;;;;;;;;24.74;45.22;93882.03;5032907;28;7305;-61
2022/11/28 10:37:25;;;;;;;;;;;;;;;24.76;44.55;93878.78;5040627;28;7040;-61
2022/11/28 10:39:54;;;;;;;;;;;;;;;24.76;44.85;93884.28;5026590;28;7075;-61
2022/11/28 10:42:34;;;;;;;;;;;;;;;24.75;45.48;93871.81;5026412;28;7043;-61
2022/11/28 10:45:29;;;;;;;;;;;;;;;24.76;44.93;93873.28;5047602;28;9013;-61
2022/11/28 10:48:25;;;;;;;;;;;;;;;24.73;44.74;93867.53;5022706;28;7309;-61
2022/11/28 10:51:03;;;;;;;;;;;;;;;24.73;45.18;93867.53;5038891;28;7312;-61
2022/11/28 10:54:08;;;;;;;;;;;;;;;24.73;44.82;93863.31;5016670;28;8990;-61
2022/11/28 10:57:05;;;;;;;;;;;;;;;24.73;44.49;93864.78;5023861;28;9130;-61
2022/11/28 11:00:07;;;;;;;;;;;;;;;24.74;44.64;93857.28;5016177;28;9430;-61
2022/11/28 11:02:38;;;;;;;;;;;;;;;24.75;45.20;93855.31;5011751;28;7302;-61
2022/11/28 11:05:14;;;;;;;;;;;;;;;24.80;45.37;93848.97;5017372;28;9067;-61
2022/11/28 11:08:10;;;;;;;;;;;;;;;24.81;45.40;93851.22;5015980;28;7346;-61
2022/11/28 11:11:06;;;;;;;;;;;;;;;24.83;45.19;93858.94;5033813;28;7449;-61
2022/11/28 11:14:12;;;;;;;;;;;;;;;24.86;44.71;93849.69;5010978;28;8657;-61
2022/11/28 11:16:58;;;;;;;;;;;;;;;24.87;45.36;93851.16;5008192;28;9048;-61
2022/11/28 11:19:36;;;;;;;;;;;;;;;24.87;44.89;93860.16;5010387;28;7185;-61
2022/11/28 11:22:11;;;;;;;;;;;;;;;24.91;44.66;93854.34;5021406;28;7241;-61
2022/11/28 11:24:37;;;;;;;;;;;;;;;24.93;44.69;93851.81;5006170;28;7621;-61
2022/11/28 11:27:14;;;;;;;;;;;;;;;24.94;45.34;93845.06;5007729;28;7237;-61
2022/11/28 11:29:52;;;;;;;;;;;;;;;24.95;44.67;93843.78;5000386;28;7346;-61
2022/11/28 11:32:25;;;;;;;;;;;;;;;24.96;44.98;93848.03;4992608;28;7032;-61
2022/11/28 11:34:55;;;;;;;;;;;;;;;24.96;45.07;93831.53;5009095;28;7022;-61
2022/11/28 11:37:34;;;;;;;;;;;;;;;24.98;45.08;93834.50;5008188;28;7096;-60
2022/11/28 11:40:30;;;;;;;;;;;;;;;24.97;45.00;93827.53;4989071;28;8365;-60
2022/11/28 11:42:58;;;;;;;;;;;;;;;24.95;45.09;93835.53;4978519;28;9468;-60
2022/11/28 11:45:33;;;;;;;;;;;;;;;24.95;44.70;93830.03;4961467;28;7325;-60
2022/11/28 11:48:02;;;;;;;;;;;;;;;24.95;45.10;93825.28;4955974;28;8774;-60
2022/11/28 11:50:35;;;;;;;;;;;;;;;24.96;45.39;93820.53;4961155;28;9218;-60
2022/11/28 11:53:20;;;;;;;;;;;;;;;24.98;45.41;93821.50;4984535;28;7212;-60
2022/11/28 11:55:54;;;;;;;;;;;;;;;24.98;45.21;93821.50;4965283;28;8995;-60
2022/11/28 11:58:38;;;;;;;;;;;;;;;24.98;44.81;93823.50;4992537;28;7243;-60
2022/11/28 12:01:43;;;;;;;;;;;;;;;25.03;45.25;93814.44;4992677;28;7281;-60
2022/11/28 12:04:40;;;;;;;;;;;;;;;25.05;45.17;93817.41;4957444;28;7314;-60
2022/11/28 12:07:22;;;;;;;;;;;;;;;25.02;44.35;93813.69;4966509;28;7058;-60
2022/11/28 12:09:59;;;;;;;;;;;;;;;24.99;44.75;93820.22;4957373;28;9765;-60
2022/11/28 12:12:36;;;;;;;;;;;;;;;25.00;44.83;93818.22;4961210;28;7117;-60
2022/11/28 12:15:16;;;;;;;;;;;;;;;25.03;45.36;93820.69;4973305;28;9053;-60
2022/11/28 12:17:53;;;;;;;;;;;;;;;25.01;45.14;93814.22;4973052;28;7696;-61
2022/11/28 12:20:41;;;;;;;;;;;;;;;25.00;44.84;93818.22;4973210;28;7437;-60
2022/11/28 12:23:44;;;;;;;;;;;;;;;25.02;44.54;93807.44;4976278;28;7026;-60
2022/11/28 12:26:27;;;;;;;;;;;;;;;24.99;45.40;93806.47;4973740;28;7462;-60
2022/11/28 12:29:19;;;;;;;;;;;;;;;25.00;45.57;93804.47;4990873;28;7425;-61
2022/11/28 12:32:22;;;;;;;;;;;;;;;25.00;44.66;93809.97;4990179;28;8999;-61
2022/11/28 12:35:33;;;;;;;;;;;;;;;25.00;44.48;93810.72;4974306;28;8623;-61
2022/11/28 12:38:26;;;;;;;;;;;;;;;24.97;45.34;93806.25;5003562;28;7175;-61
2022/11/28 12:41:13;;;;;;;;;;;;;;;25.00;45.25;93809.97;5002781;28;7050;-61
2022/11/28 12:44:16;;;;;;;;;;;;;;;25.03;44.32;93803.44;5002209;28;7195;-61
2022/11/28 12:47:06;;;;;;;;;;;;;;;25.00;44.62;93798.97;5002284;28;10078;-61
2022/11/28 12:49:41;;;;;;;;;;;;;;;25.02;44.50;93799.19;5008423;28;9334;-61
2022/11/28 12:52:22;;;;;;;;;;;;;;;25.04;44.37;93796.66;5006898;28;8587;-61
2022/11/28 12:55:07;;;;;;;;;;;;;;;25.02;44.92;93793.69;5004959;28;7103;-61
2022/11/28 12:57:47;;;;;;;;;;;;;;;25.02;44.14;93791.69;5005958;28;7225;-61
2022/11/28 13:00:24;;;;;;;;;;;;;;;25.00;44.54;93787.94;5005707;28;7617;-61
2022/11/28 13:02:58;;;;;;;;;;;;;;;25.01;44.41;93786.69;5006212;28;7234;-62
2022/11/28 13:06:10;;;;;;;;;;;;;;;24.98;44.22;93780.22;5015404;28;7042;-61
2022/11/28 13:09:33;;;;;;;;;;;;;;;24.97;45.22;93783.50;5005671;28;9040;-61
2022/11/28 13:15:49;;;;;;;;;;;;;;;24.93;44.84;93786.53;4965171;28;8959;-61
2022/11/28 13:18:34;;;;;;;;;;;;;;;24.94;44.82;93785.28;4965374;28;8013;-61
2022/11/28 13:21:17;;;;;;;;;;;;;;;24.94;44.70;93787.28;4968245;28;7156;-60
2022/11/28 13:24:07;;;;;;;;;;;;;;;24.93;44.67;93788.53;4970751;28;7047;-60
2022/11/28 13:26:51;;;;;;;;;;;;;;;24.92;45.46;93787.81;4953639;28;7399;-60
2022/11/28 13:29:27;;;;;;;;;;;;;;;24.92;45.36;93787.06;4947301;28;8981;-60
2022/11/28 13:32:00;;;;;;;;;;;;;;;24.94;45.13;93790.03;4951746;28;7242;-60
2022/11/28 13:34:31;;;;;;;;;;;;;;;24.93;44.61;93786.53;4965879;28;7574;-60
2022/11/28 13:37:10;;;;;;;;;;;;;;;24.94;44.67;93798.28;4967503;28;7057;-60
2022/11/28 13:39:55;;;;;;;;;;;;;;;24.92;45.35;93792.56;4953979;28;7288;-60
2022/11/28 13:42:43;;;;;;;;;;;;;;;24.96;45.37;93793.00;4966981;28;9088;-60
2022/11/28 13:45:39;;;;;;;;;;;;;;;24.95;45.32;93788.75;4962649;28;7063;-60
2022/11/28 13:48:32;;;;;;;;;;;;;;;24.94;45.08;93790.78;5001831;28;7279;-60
2022/11/28 13:51:16;;;;;;;;;;;;;;;24.93;44.76;93785.78;5004302;28;7447;-60
2022/11/28 13:53:43;;;;;;;;;;;;;;;24.96;44.84;93791.00;5002405;28;8987;-60
2022/11/28 13:56:17;;;;;;;;;;;;;;;24.95;45.15;93791.50;5011867;28;7487;-60
2022/11/28 13:59:00;;;;;;;;;;;;;;;24.96;45.06;93791.00;5001406;28;7635;-60
2022/11/28 14:02:13;;;;;;;;;;;;;;;24.98;44.14;93796.00;5006956;28;9411;-60
2022/11/28 14:04:43;;;;;;;;;;;;;;;24.97;44.11;93803.50;5013104;28;9142;-60
2022/11/28 14:07:35;;;;;;;;;;;;;;;24.94;44.74;93798.28;5021635;28;9088;-60
2022/11/28 14:10:08;;;;;;;;;;;;;;;24.94;44.49;93798.28;5001520;28;7429;-60
2022/11/28 14:13:21;;;;;;;;;;;;;;;24.91;45.18;93807.56;5023666;28;7614;-60
2022/11/28 14:16:09;;;;;;;;;;;;;;;24.94;44.04;93798.28;4951445;29;7275;-60
2022/11/28 14:18:57;;;;;;;;;;;;;;;24.98;44.67;93804.25;4951965;29;7062;-60
2022/11/28 14:21:28;;;;;;;;;;;;;;;24.97;44.59;93805.53;4948791;29;7341;-60
2022/11/28 14:24:36;;;;;;;;;;;;;;;24.96;44.73;93809.53;4952057;29;7046;-60